createdAt,value
2018-05-12T00:01:24.324Z,68.40
2018-05-12T00:03:58.657Z,68.40
2018-05-12T00:06:33.787Z,68.80
2018-05-12T00:09:08.159Z,68.80
2018-05-12T00:11:42.493Z,69.20
2018-05-12T00:14:16.837Z,69.40
2018-05-12T00:16:51.133Z,69.30
2018-05-12T00:19:25.903Z,69.50
2018-05-12T00:22:00.185Z,69.60
2018-05-12T00:24:34.652Z,69.60
2018-05-12T00:27:08.963Z,69.60
2018-05-12T00:29:43.336Z,69.60
2018-05-12T00:32:17.995Z,69.30
2018-05-12T00:34:52.314Z,69.30
2018-05-12T00:37:26.786Z,69.50
2018-05-12T00:40:01.045Z,69.10
2018-05-12T00:42:35.560Z,67.60
2018-05-12T00:45:09.998Z,68.00
2018-05-12T00:47:44.311Z,68.10
2018-05-12T00:50:18.717Z,67.30
2018-05-12T00:52:53.164Z,66.20
2018-05-12T00:55:27.425Z,65.70
2018-05-12T00:58:01.756Z,65.20
2018-05-12T01:00:36.815Z,65.80
2018-05-12T01:03:11.188Z,65.70
2018-05-12T01:05:45.522Z,67.30
2018-05-12T01:08:19.980Z,65.50
2018-05-12T01:10:54.421Z,66.70
2018-05-12T01:13:29.116Z,67.50
2018-05-12T01:16:03.641Z,67.40
2018-05-12T01:18:37.925Z,68.00
2018-05-12T01:21:12.325Z,67.70
2018-05-12T01:23:46.680Z,67.60
2018-05-12T01:26:20.989Z,67.50
2018-05-12T01:28:55.470Z,67.80
2018-05-12T01:31:29.900Z,68.40
2018-05-12T01:34:04.317Z,68.40
2018-05-12T01:36:38.650Z,68.80
2018-05-12T01:39:12.983Z,69.70
2018-05-12T01:41:48.063Z,70.80
2018-05-12T01:44:23.216Z,71.20
2018-05-12T01:46:57.679Z,71.20
2018-05-12T01:49:32.213Z,71.40
2018-05-12T01:52:06.618Z,71.40
2018-05-12T01:54:41.081Z,71.40
2018-05-12T01:57:15.405Z,71.50
2018-05-12T01:59:49.887Z,70.60
2018-05-12T02:02:24.497Z,70.70
2018-05-12T02:04:59.029Z,71.00
2018-05-12T02:07:33.461Z,71.30
2018-05-12T02:10:08.645Z,71.60
2018-05-12T02:12:42.973Z,71.60
2018-05-12T02:15:17.279Z,71.50
2018-05-12T02:17:52.306Z,71.50
2018-05-12T02:20:26.817Z,71.40
2018-05-12T02:23:01.222Z,72.30
2018-05-12T02:25:35.506Z,71.90
2018-05-12T02:28:09.819Z,71.40
2018-05-12T02:30:44.138Z,71.80
2018-05-12T02:33:18.570Z,71.50
2018-05-12T02:35:53.175Z,71.80
2018-05-12T02:38:27.786Z,72.50
2018-05-12T02:41:02.228Z,72.50
2018-05-12T02:43:36.955Z,72.80
2018-05-12T02:46:11.441Z,72.90
2018-05-12T02:48:45.774Z,73.70
2018-05-12T02:51:20.190Z,73.80
2018-05-12T02:53:54.763Z,73.80
2018-05-12T02:56:29.066Z,74.40
2018-05-12T02:59:03.486Z,74.10
2018-05-12T03:01:37.895Z,74.10
2018-05-12T03:04:12.386Z,75.10
2018-05-12T03:06:46.945Z,75.30
2018-05-12T03:09:21.682Z,75.80
2018-05-12T03:11:56.286Z,75.70
2018-05-12T03:14:30.598Z,76.20
2018-05-12T03:17:05.108Z,76.00
2018-05-12T03:19:39.658Z,76.10
2018-05-12T03:22:13.970Z,76.10
2018-05-12T03:24:48.399Z,76.60
2018-05-12T03:27:22.725Z,77.80
2018-05-12T03:29:57.108Z,77.30
2018-05-12T03:32:31.459Z,77.30
2018-05-12T03:35:06.086Z,77.50
2018-05-12T03:37:40.602Z,77.90
2018-05-12T03:40:15.061Z,78.60
2018-05-12T03:42:49.461Z,78.80
2018-05-12T03:45:23.757Z,78.40
2018-05-12T03:47:58.149Z,78.70
2018-05-12T03:50:32.556Z,78.90
2018-05-12T03:53:07.018Z,79.00
2018-05-12T03:55:41.460Z,78.30
2018-05-12T03:58:15.981Z,78.80
2018-05-12T04:00:50.412Z,79.60
2018-05-12T04:03:24.918Z,79.20
2018-05-12T04:19:27.141Z,79.90
2018-05-12T04:22:01.575Z,79.80
2018-05-12T04:24:36.209Z,80.00
2018-05-12T04:27:11.328Z,80.50
2018-05-12T04:29:46.540Z,80.20
2018-05-12T04:32:20.828Z,80.20
2018-05-12T04:34:55.136Z,80.60
2018-05-12T04:37:29.523Z,80.80
2018-05-12T04:40:03.868Z,81.00
2018-05-12T04:42:38.209Z,80.30
2018-05-12T04:45:12.587Z,79.90
2018-05-12T04:47:47.014Z,80.60
2018-05-12T04:50:21.541Z,80.50
2018-05-12T04:52:55.979Z,80.60
2018-05-12T04:55:31.316Z,80.10
2018-05-12T04:58:05.707Z,80.00
2018-05-12T05:00:40.043Z,79.30
2018-05-12T05:03:14.344Z,77.90
2018-05-12T05:05:48.627Z,77.10
2018-05-12T05:08:23.082Z,76.80
2018-05-12T05:10:57.540Z,76.60
2018-05-12T05:13:31.820Z,75.80
2018-05-12T05:16:06.272Z,75.40
2018-05-12T05:18:40.668Z,75.70
2018-05-12T05:21:15.232Z,76.50
2018-05-12T05:23:49.744Z,75.80
2018-05-12T05:26:24.250Z,76.10
2018-05-12T05:28:59.496Z,75.70
2018-05-12T05:31:33.786Z,75.70
2018-05-12T05:34:08.763Z,75.60
2018-05-12T05:36:43.027Z,75.00
2018-05-12T05:39:17.477Z,74.90
2018-05-12T05:41:51.967Z,74.20
2018-05-12T05:44:26.440Z,74.10
2018-05-12T05:47:00.716Z,74.20
2018-05-12T05:49:35.107Z,73.90
2018-05-12T05:52:10.216Z,73.50
2018-05-12T05:54:44.617Z,72.30
2018-05-12T05:57:18.988Z,72.00
2018-05-12T05:59:53.472Z,71.50
2018-05-12T06:02:27.785Z,70.50
2018-05-12T06:05:02.081Z,69.30
2018-05-12T06:07:36.541Z,70.20
2018-05-12T06:10:11.655Z,69.30
2018-05-12T06:12:46.060Z,69.30
2018-05-12T06:15:20.357Z,69.30
2018-05-12T06:17:54.914Z,69.90
2018-05-12T06:20:29.345Z,69.60
2018-05-12T06:23:03.664Z,68.50
2018-05-12T06:25:37.984Z,68.90
2018-05-12T06:28:13.110Z,68.40
2018-05-12T06:30:47.520Z,68.30
2018-05-12T06:33:22.057Z,68.90
2018-05-12T06:35:56.376Z,68.80
2018-05-12T06:38:30.788Z,68.10
2018-05-12T06:41:05.200Z,67.50
2018-05-12T06:43:39.563Z,67.00
2018-05-12T06:46:15.369Z,67.80
2018-05-12T06:48:49.691Z,67.80
2018-05-12T06:51:24.028Z,67.90
2018-05-12T06:53:58.599Z,67.20
2018-05-12T06:56:33.060Z,65.70
2018-05-12T06:59:07.504Z,65.00
2018-05-12T07:01:41.782Z,63.30
2018-05-12T07:04:16.209Z,63.10
2018-05-12T07:06:50.549Z,64.10
2018-05-12T07:09:24.895Z,63.00
2018-05-12T07:11:59.281Z,62.10
2018-05-12T07:14:33.940Z,61.80
2018-05-12T07:17:08.658Z,65.00
2018-05-12T07:19:43.021Z,64.10
2018-05-12T07:22:17.494Z,63.80
2018-05-12T07:24:52.692Z,62.00
2018-05-12T07:27:27.358Z,61.80
2018-05-12T07:30:01.634Z,59.90
2018-05-12T07:32:36.108Z,60.10
2018-05-12T07:35:10.426Z,60.30
2018-05-12T07:37:44.776Z,60.90
2018-05-12T07:40:19.605Z,60.20
2018-05-12T07:42:53.920Z,60.40
2018-05-12T07:45:28.336Z,60.20
2018-05-12T07:48:02.633Z,58.80
2018-05-12T07:50:37.871Z,56.20
2018-05-12T07:53:12.188Z,56.20
2018-05-12T07:55:47.209Z,52.80
2018-05-12T07:58:21.500Z,52.00
2018-05-12T08:00:55.842Z,52.30
2018-05-12T08:03:30.179Z,52.00
2018-05-12T08:06:04.561Z,52.10
2018-05-12T08:08:39.151Z,49.90
2018-05-12T08:11:13.573Z,49.10
2018-05-12T08:13:47.914Z,47.50
2018-05-12T08:16:22.473Z,45.80
2018-05-12T08:18:56.885Z,47.00
2018-05-12T08:21:31.352Z,47.40
2018-05-12T08:24:05.618Z,47.20
2018-05-12T08:26:39.987Z,47.90
2018-05-12T08:29:14.357Z,48.20
2018-05-12T08:31:49.401Z,46.60
2018-05-12T08:34:24.626Z,46.90
2018-05-12T08:36:59.052Z,46.90
2018-05-12T08:39:34.382Z,47.60
2018-05-12T08:42:09.638Z,47.10
2018-05-12T08:44:44.032Z,46.40
2018-05-12T08:47:18.273Z,45.00
2018-05-12T08:49:52.557Z,45.30
2018-05-12T08:52:26.906Z,43.70
2018-05-12T09:26:08.525Z,40.80
2018-05-12T09:28:42.868Z,40.50
2018-05-12T09:31:17.267Z,41.20
2018-05-12T09:33:51.839Z,41.40
2018-05-12T09:36:26.232Z,41.00
2018-05-12T09:39:00.553Z,42.00
2018-05-12T09:41:34.811Z,42.00
2018-05-12T09:44:09.137Z,41.30
2018-05-12T09:46:43.575Z,41.80
2018-05-12T09:49:17.880Z,40.00
2018-05-12T09:51:52.305Z,41.30
2018-05-12T09:54:27.601Z,39.80
2018-05-12T09:57:02.175Z,40.80
2018-05-12T09:59:36.768Z,41.90
2018-05-12T10:02:11.107Z,40.10
2018-05-12T10:04:45.539Z,40.50
2018-05-12T10:07:19.969Z,41.30
2018-05-12T10:09:54.504Z,42.00
2018-05-12T10:12:28.945Z,41.60
2018-05-12T10:15:03.358Z,41.90
2018-05-12T10:17:37.844Z,42.20
2018-05-12T10:20:12.388Z,40.70
2018-05-12T10:22:47.179Z,40.90
2018-05-12T10:25:21.646Z,39.30
2018-05-12T10:27:56.260Z,39.50
2018-05-12T10:30:30.704Z,39.20
2018-05-12T10:33:05.221Z,40.10
2018-05-12T10:35:39.521Z,36.00
2018-05-12T10:38:13.816Z,36.00
2018-05-12T10:40:48.105Z,36.80
2018-05-12T10:43:22.452Z,39.50
2018-05-12T10:45:56.770Z,36.80
2018-05-12T10:48:31.034Z,37.20
2018-05-12T10:51:05.630Z,37.30
2018-05-12T10:53:40.154Z,36.80
2018-05-12T10:56:15.193Z,39.50
2018-05-12T10:58:49.501Z,39.30
2018-05-12T11:01:24.046Z,38.00
2018-05-12T11:03:58.682Z,38.20
2018-05-12T11:06:33.080Z,36.20
2018-05-12T11:09:07.406Z,37.10
2018-05-12T11:11:41.942Z,38.50
2018-05-12T11:14:16.428Z,41.70
2018-05-12T11:16:50.751Z,38.50
2018-05-12T11:19:25.120Z,37.00
2018-05-12T11:22:00.355Z,37.00
2018-05-12T11:24:34.691Z,38.00
2018-05-12T11:27:09.032Z,39.50
2018-05-12T11:29:43.361Z,37.70
2018-05-12T11:32:17.731Z,38.90
2018-05-12T11:34:52.037Z,37.30
2018-05-12T11:37:26.430Z,38.50
2018-05-12T11:40:00.739Z,36.90
2018-05-12T11:42:35.173Z,40.30
2018-05-12T11:45:09.518Z,37.50
2018-05-12T11:47:44.123Z,36.30
2018-05-12T11:50:18.445Z,40.30
2018-05-12T11:52:52.858Z,40.60
2018-05-12T11:55:27.265Z,39.40
2018-05-12T11:58:03.120Z,39.80
2018-05-12T12:00:37.672Z,39.80
2018-05-12T12:03:12.000Z,37.50
2018-05-12T12:05:47.309Z,39.10
2018-05-12T12:08:21.830Z,39.10
2018-05-12T12:10:56.286Z,39.90
2018-05-12T12:13:30.754Z,36.00
2018-05-12T12:16:05.213Z,36.40
2018-05-12T12:18:40.538Z,40.00
2018-05-12T12:21:15.101Z,37.10
2018-05-12T12:23:49.468Z,37.30
2018-05-12T12:26:23.902Z,39.90
2018-05-12T12:28:58.264Z,39.50
2018-05-12T12:31:32.701Z,40.00
2018-05-12T12:34:08.516Z,39.80
2018-05-12T12:36:42.853Z,39.70
2018-05-12T12:39:17.257Z,37.20
2018-05-12T12:41:51.523Z,39.10
2018-05-12T12:44:25.817Z,37.20
2018-05-12T12:47:00.117Z,36.20
2018-05-12T12:49:34.516Z,36.80
2018-05-12T12:52:08.784Z,36.90
2018-05-12T12:54:43.396Z,40.60
2018-05-12T12:57:17.673Z,36.90
2018-05-12T12:59:52.004Z,36.70
2018-05-12T13:02:26.611Z,40.00
2018-05-12T13:05:00.972Z,38.90
2018-05-12T13:07:35.467Z,37.70
2018-05-12T13:10:09.877Z,35.40
2018-05-12T13:12:44.981Z,38.90
2018-05-12T13:15:19.249Z,38.90
2018-05-12T13:17:53.758Z,37.60
2018-05-12T13:20:28.157Z,38.30
2018-05-12T13:23:02.667Z,35.20
2018-05-12T13:25:37.119Z,34.40
2018-05-12T13:28:11.753Z,33.80
2018-05-12T13:30:46.093Z,37.20
2018-05-12T13:33:20.482Z,34.70
2018-05-12T13:35:54.967Z,34.00
2018-05-12T13:38:29.324Z,34.40
2018-05-12T13:41:03.640Z,34.50
2018-05-12T13:43:37.963Z,34.70
2018-05-12T13:46:12.482Z,38.20
2018-05-12T13:48:46.729Z,35.30
2018-05-12T13:51:21.680Z,34.80
2018-05-12T13:53:55.956Z,34.60
2018-05-12T13:56:30.577Z,34.90
2018-05-12T13:59:04.864Z,36.90
2018-05-12T14:04:38.436Z,34.40
2018-05-12T14:07:12.884Z,35.30
2018-05-12T14:09:47.366Z,37.00
2018-05-12T14:12:21.870Z,36.70
2018-05-12T14:14:56.311Z,33.30
2018-05-12T14:17:30.583Z,36.00
2018-05-12T14:20:04.945Z,34.60
2018-05-12T14:22:39.497Z,37.40
2018-05-12T14:25:13.911Z,35.20
2018-05-12T14:27:49.003Z,34.30
2018-05-12T14:30:23.336Z,34.20
2018-05-12T14:32:57.739Z,37.50
2018-05-12T14:35:32.320Z,35.70
2018-05-12T14:38:06.597Z,35.60
2018-05-12T14:40:42.653Z,34.70
2018-05-12T14:43:16.973Z,34.70
2018-05-12T14:45:51.390Z,34.90
2018-05-12T14:48:25.716Z,35.00
2018-05-12T14:51:00.273Z,36.00
2018-05-12T14:53:34.769Z,35.50
2018-05-12T14:56:09.095Z,36.00
2018-05-12T14:58:43.498Z,37.00
2018-05-12T15:01:17.936Z,36.50
2018-05-12T15:03:52.341Z,35.00
2018-05-12T15:06:26.778Z,35.30
2018-05-12T15:09:01.393Z,35.70
2018-05-12T15:11:35.832Z,34.90
2018-05-12T15:14:11.857Z,35.80
2018-05-12T15:16:46.426Z,35.70
2018-05-12T15:22:04.868Z,35.50
2018-05-12T15:24:40.077Z,37.70
2018-05-12T15:27:14.516Z,37.60
2018-05-12T15:29:49.039Z,38.70
2018-05-12T15:32:23.661Z,38.30
2018-05-12T15:34:58.144Z,38.00
2018-05-12T15:37:32.614Z,37.90
2018-05-12T15:40:07.038Z,38.80
2018-05-12T15:42:41.380Z,39.00
2018-05-12T15:45:15.677Z,38.60
2018-05-12T15:47:49.980Z,39.10
2018-05-12T15:50:24.443Z,39.40
2018-05-12T15:52:58.712Z,39.70
2018-05-12T15:55:33.115Z,39.30
2018-05-12T15:58:07.505Z,39.10
2018-05-12T16:00:42.793Z,39.80
2018-05-12T16:03:18.000Z,39.00
2018-05-12T16:06:02.721Z,39.00
2018-05-12T16:08:37.148Z,39.00
2018-05-12T16:11:12.361Z,38.60
2018-05-12T16:13:46.756Z,38.50
2018-05-12T16:16:21.400Z,37.40
2018-05-12T16:18:55.701Z,38.00
2018-05-12T16:21:29.944Z,38.30
2018-05-12T16:24:05.812Z,38.10
2018-05-12T16:26:40.212Z,38.10
2018-05-12T16:29:14.660Z,38.60
2018-05-12T16:31:49.132Z,39.00
2018-05-12T16:34:23.632Z,38.70
2018-05-12T16:36:57.913Z,38.70
2018-05-12T16:39:32.188Z,39.00
2018-05-12T16:42:06.684Z,38.80
2018-05-12T16:44:41.155Z,39.20
2018-05-12T16:47:15.424Z,39.70
2018-05-12T16:49:49.792Z,39.20
2018-05-12T16:52:24.116Z,39.50
2018-05-12T16:54:58.392Z,40.70
2018-05-12T16:57:32.735Z,41.60
2018-05-12T17:00:07.012Z,42.00
2018-05-12T17:02:41.386Z,42.10
2018-05-12T17:05:15.931Z,42.40
2018-05-12T17:07:50.246Z,42.80
2018-05-12T17:10:24.668Z,43.30
2018-05-12T17:12:58.984Z,43.50
2018-05-12T17:15:33.395Z,42.90
2018-05-12T17:18:07.713Z,43.00
2018-05-12T17:20:42.134Z,43.20
2018-05-12T17:23:16.541Z,43.00
2018-05-12T17:25:57.244Z,43.80
2018-05-12T17:28:31.629Z,43.90
2018-05-12T17:31:06.883Z,44.30
2018-05-12T17:33:41.508Z,44.80
2018-05-12T17:36:15.883Z,44.90
2018-05-12T17:38:50.368Z,45.60
2018-05-12T17:41:24.800Z,45.70
2018-05-12T17:43:59.281Z,46.20
2018-05-12T17:46:33.742Z,46.50
2018-05-12T17:49:08.149Z,46.50
2018-05-12T17:51:42.680Z,47.00
2018-05-12T17:54:17.141Z,47.20
2018-05-12T17:56:51.705Z,47.60
2018-05-12T17:59:25.992Z,48.20
2018-05-12T18:02:00.325Z,48.50
2018-05-12T18:04:34.769Z,49.10
2018-05-12T18:07:09.183Z,49.90
2018-05-12T18:09:43.604Z,50.60
2018-05-12T18:12:17.899Z,51.20
2018-05-12T18:14:52.347Z,51.60
2018-05-12T18:17:26.817Z,52.00
2018-05-12T18:20:01.093Z,52.50
2018-05-12T18:22:35.512Z,53.10
2018-05-12T18:25:09.936Z,53.30
2018-05-12T18:27:44.568Z,53.60
2018-05-12T18:30:19.100Z,54.00
2018-05-12T18:32:53.508Z,54.30
2018-05-12T18:35:28.042Z,54.80
2018-05-12T18:38:02.277Z,55.10
2018-05-12T18:40:36.568Z,55.60
2018-05-12T18:43:11.173Z,55.80
2018-05-12T18:45:45.819Z,56.00
2018-05-12T18:48:20.288Z,56.40
2018-05-12T18:50:54.744Z,56.60
2018-05-12T18:53:29.121Z,56.70
2018-05-12T18:56:03.452Z,57.00
2018-05-12T18:58:37.846Z,57.40
2018-05-12T19:01:12.944Z,57.70
2018-05-12T19:03:47.277Z,57.70
2018-05-12T19:06:21.688Z,57.90
2018-05-12T19:08:56.907Z,58.30
2018-05-12T19:11:32.690Z,58.60
2018-05-12T19:14:07.124Z,58.60
2018-05-12T19:16:41.560Z,58.90
2018-05-12T19:19:16.156Z,59.20
2018-05-12T19:21:50.773Z,59.30
2018-05-12T19:24:25.327Z,59.50
2018-05-12T19:26:59.478Z,59.70
2018-05-12T19:29:33.800Z,59.90
2018-05-12T19:32:08.257Z,60.00
2018-05-12T19:34:42.892Z,60.50
2018-05-12T19:37:17.192Z,61.00
2018-05-12T19:39:51.572Z,61.00
2018-05-12T19:42:25.911Z,61.60
2018-05-12T19:45:00.249Z,62.10
2018-05-12T19:47:34.972Z,62.30
2018-05-12T19:50:09.394Z,62.70
2018-05-12T19:52:43.861Z,63.10
2018-05-12T19:55:18.125Z,63.20
2018-05-12T19:57:52.557Z,63.30
2018-05-12T20:00:27.906Z,63.90
2018-05-12T20:03:02.333Z,63.90
2018-05-12T20:05:36.836Z,64.40
2018-05-12T20:08:11.458Z,64.50
2018-05-12T20:10:45.923Z,64.90
2018-05-12T20:13:20.271Z,65.00
2018-05-12T20:15:54.797Z,65.20
2018-05-12T20:18:29.184Z,65.50
2018-05-12T20:21:04.381Z,66.00
2018-05-12T20:23:38.789Z,65.90
2018-05-12T20:26:13.325Z,66.30
2018-05-12T20:28:47.752Z,66.50
2018-05-12T20:31:22.225Z,66.70
2018-05-12T20:33:56.797Z,66.90
2018-05-12T20:36:31.076Z,66.90
2018-05-12T20:39:05.456Z,67.20
2018-05-12T20:41:39.749Z,67.50
2018-05-12T20:44:14.200Z,67.60
2018-05-12T20:46:48.512Z,68.10
2018-05-12T20:49:22.966Z,68.30
2018-05-12T20:51:57.306Z,68.40
2018-05-12T20:54:31.848Z,68.50
2018-05-12T20:57:06.480Z,68.50
2018-05-12T20:59:41.023Z,68.60
2018-05-12T21:02:15.493Z,68.70
2018-05-12T21:04:49.838Z,68.90
2018-05-12T21:07:24.188Z,69.00
2018-05-12T21:09:58.682Z,69.60
2018-05-12T21:12:33.077Z,69.80
2018-05-12T21:15:07.608Z,70.10
2018-05-12T21:17:42.032Z,70.10
2018-05-12T21:20:16.335Z,70.10
2018-05-12T21:22:50.684Z,70.50
2018-05-12T21:25:25.108Z,71.00
2018-05-12T21:27:59.640Z,71.10
2018-05-12T21:30:34.017Z,70.90
2018-05-12T21:33:08.393Z,71.30
2018-05-12T21:35:43.018Z,71.40
2018-05-12T21:38:17.628Z,71.90
2018-05-12T21:40:52.248Z,72.10
2018-05-12T21:43:26.648Z,72.30
2018-05-12T21:46:01.296Z,72.20
2018-05-12T21:48:35.708Z,72.50
2018-05-12T21:51:09.976Z,72.80
2018-05-12T21:53:44.621Z,73.10
2018-05-12T21:56:19.172Z,73.40
2018-05-12T21:58:53.493Z,73.50
2018-05-12T22:01:27.865Z,74.10
2018-05-12T22:04:02.221Z,74.50
2018-05-12T22:06:36.520Z,74.20
2018-05-12T22:09:10.901Z,74.80
2018-05-12T22:11:45.240Z,74.80
2018-05-12T22:14:19.816Z,74.90
2018-05-12T22:16:54.110Z,75.20
2018-05-12T22:19:28.655Z,74.10
2018-05-12T22:22:02.920Z,73.90
2018-05-12T22:24:37.319Z,74.00
2018-05-12T22:27:11.593Z,72.90
2018-05-12T22:29:46.024Z,73.20
2018-05-12T22:32:20.361Z,73.30
2018-05-12T22:34:54.874Z,74.10
2018-05-12T22:37:29.268Z,75.00
2018-05-12T22:40:03.612Z,75.60
2018-05-12T22:42:37.896Z,75.90
2018-05-12T22:45:12.356Z,76.00
2018-05-12T22:47:46.674Z,75.50
2018-05-12T22:50:21.102Z,76.20
2018-05-12T22:52:56.448Z,77.10
2018-05-12T22:55:31.079Z,77.10
2018-05-12T22:58:05.589Z,76.60
2018-05-12T23:00:40.129Z,75.80
2018-05-12T23:03:14.479Z,76.40
2018-05-12T23:05:48.968Z,76.50
2018-05-12T23:08:24.191Z,76.60
2018-05-12T23:10:58.881Z,76.70
2018-05-12T23:13:33.277Z,76.90
2018-05-12T23:16:07.686Z,76.70
2018-05-12T23:18:41.992Z,76.50
2018-05-12T23:21:16.468Z,77.00
2018-05-12T23:23:50.831Z,76.80
2018-05-12T23:26:25.200Z,76.70
2018-05-12T23:28:59.716Z,77.80
2018-05-12T23:31:34.188Z,78.00
2018-05-12T23:34:08.445Z,78.50
2018-05-12T23:36:43.024Z,78.60
2018-05-12T23:39:17.406Z,78.90
2018-05-12T23:41:51.878Z,79.10
2018-05-12T23:44:26.261Z,78.90
2018-05-12T23:47:00.851Z,78.80
2018-05-12T23:49:35.231Z,78.70
2018-05-12T23:52:10.265Z,80.00
2018-05-12T23:54:44.596Z,80.00
2018-05-12T23:57:19.112Z,80.00
2018-05-12T23:59:53.529Z,80.60
